sensor_id;sensor_type;location;lat;lon;timestamp;P1;durP1;ratioP1;P2;durP2;ratioP2
26536;SDS011;14204;51.262;5.488;2022-07-05T00:02:04;4.60;;;3.63;;
26536;SDS011;14204;51.262;5.488;2022-07-05T00:04:30;5.28;;;3.45;;
26536;SDS011;14204;51.262;5.488;2022-07-05T00:06:55;3.92;;;3.53;;
26536;SDS011;14204;51.262;5.488;2022-07-05T00:09:39;6.55;;;4.38;;
26536;SDS011;14204;51.262;5.488;2022-07-05T00:12:05;5.40;;;4.28;;
26536;SDS011;14204;51.262;5.488;2022-07-05T00:14:31;4.28;;;3.88;;
26536;SDS011;14204;51.262;5.488;2022-07-05T00:16:57;8.18;;;3.80;;
26536;SDS011;14204;51.262;5.488;2022-07-05T00:19:22;4.75;;;3.97;;
26536;SDS011;14204;51.262;5.488;2022-07-05T00:21:48;3.95;;;3.53;;
26536;SDS011;14204;51.262;5.488;2022-07-05T00:24:13;4.55;;;3.20;;
26536;SDS011;14204;51.262;5.488;2022-07-05T00:26:39;6.20;;;3.72;;
26536;SDS011;14204;51.262;5.488;2022-07-05T00:29:05;4.05;;;3.65;;
26536;SDS011;14204;51.262;5.488;2022-07-05T00:31:30;4.93;;;3.70;;
26536;SDS011;14204;51.262;5.488;2022-07-05T00:33:56;7.95;;;3.92;;
26536;SDS011;14204;51.262;5.488;2022-07-05T00:36:21;4.50;;;4.07;;
26536;SDS011;14204;51.262;5.488;2022-07-05T00:38:47;4.82;;;4.32;;
26536;SDS011;14204;51.262;5.488;2022-07-05T00:41:13;5.57;;;3.90;;
26536;SDS011;14204;51.262;5.488;2022-07-05T00:43:50;3.67;;;3.38;;
26536;SDS011;14204;51.262;5.488;2022-07-05T00:46:20;6.40;;;3.70;;
26536;SDS011;14204;51.262;5.488;2022-07-05T00:48:45;4.05;;;3.58;;
26536;SDS011;14204;51.262;5.488;2022-07-05T00:51:11;4.15;;;3.78;;
26536;SDS011;14204;51.262;5.488;2022-07-05T00:53:36;4.85;;;3.55;;
26536;SDS011;14204;51.262;5.488;2022-07-05T00:56:03;4.43;;;4.07;;
26536;SDS011;14204;51.262;5.488;2022-07-05T00:58:29;6.85;;;3.80;;
26536;SDS011;14204;51.262;5.488;2022-07-05T01:00:57;4.65;;;3.80;;
26536;SDS011;14204;51.262;5.488;2022-07-05T01:03:24;7.35;;;3.38;;
26536;SDS011;14204;51.262;5.488;2022-07-05T01:05:52;4.60;;;3.72;;
26536;SDS011;14204;51.262;5.488;2022-07-05T01:08:19;5.07;;;3.72;;
26536;SDS011;14204;51.262;5.488;2022-07-05T01:10:44;4.38;;;3.85;;
26536;SDS011;14204;51.262;5.488;2022-07-05T01:13:10;4.93;;;3.80;;
26536;SDS011;14204;51.262;5.488;2022-07-05T01:15:36;5.20;;;3.85;;
26536;SDS011;14204;51.262;5.488;2022-07-05T01:18:04;5.20;;;4.05;;
26536;SDS011;14204;51.262;5.488;2022-07-05T01:20:30;5.43;;;3.90;;
26536;SDS011;14204;51.262;5.488;2022-07-05T01:22:57;5.97;;;4.03;;
26536;SDS011;14204;51.262;5.488;2022-07-05T01:25:25;5.93;;;3.88;;
26536;SDS011;14204;51.262;5.488;2022-07-05T01:27:52;7.10;;;4.53;;
26536;SDS011;14204;51.262;5.488;2022-07-05T01:30:18;7.82;;;4.38;;
26536;SDS011;14204;51.262;5.488;2022-07-05T01:32:45;6.85;;;4.50;;
26536;SDS011;14204;51.262;5.488;2022-07-05T01:35:11;4.40;;;4.10;;
26536;SDS011;14204;51.262;5.488;2022-07-05T01:37:38;5.10;;;4.68;;
26536;SDS011;14204;51.262;5.488;2022-07-05T01:40:05;3.60;;;3.40;;
26536;SDS011;14204;51.262;5.488;2022-07-05T01:42:31;10.30;;;4.20;;
26536;SDS011;14204;51.262;5.488;2022-07-05T01:44:57;5.55;;;3.95;;
26536;SDS011;14204;51.262;5.488;2022-07-05T01:47:23;4.90;;;4.10;;
26536;SDS011;14204;51.262;5.488;2022-07-05T01:49:49;4.10;;;3.80;;
26536;SDS011;14204;51.262;5.488;2022-07-05T01:52:19;4.65;;;3.95;;
26536;SDS011;14204;51.262;5.488;2022-07-05T01:54:48;5.90;;;4.25;;
26536;SDS011;14204;51.262;5.488;2022-07-05T01:57:14;6.32;;;3.97;;
26536;SDS011;14204;51.262;5.488;2022-07-05T01:59:40;5.05;;;3.70;;
26536;SDS011;14204;51.262;5.488;2022-07-05T02:02:06;5.13;;;3.50;;
26536;SDS011;14204;51.262;5.488;2022-07-05T02:04:33;5.63;;;4.10;;
26536;SDS011;14204;51.262;5.488;2022-07-05T02:07:03;5.68;;;4.38;;
26536;SDS011;14204;51.262;5.488;2022-07-05T02:09:30;4.05;;;3.72;;
26536;SDS011;14204;51.262;5.488;2022-07-05T02:11:56;6.55;;;3.60;;
26536;SDS011;14204;51.262;5.488;2022-07-05T02:14:21;4.20;;;3.80;;
26536;SDS011;14204;51.262;5.488;2022-07-05T02:16:47;5.05;;;4.07;;
26536;SDS011;14204;51.262;5.488;2022-07-05T02:19:13;4.50;;;4.07;;
26536;SDS011;14204;51.262;5.488;2022-07-05T02:21:39;7.88;;;3.85;;
26536;SDS011;14204;51.262;5.488;2022-07-05T02:24:05;5.07;;;4.05;;
26536;SDS011;14204;51.262;5.488;2022-07-05T02:26:31;3.90;;;3.50;;
26536;SDS011;14204;51.262;5.488;2022-07-05T02:28:57;3.70;;;3.40;;
26536;SDS011;14204;51.262;5.488;2022-07-05T02:31:23;6.78;;;3.83;;
26536;SDS011;14204;51.262;5.488;2022-07-05T02:33:49;4.65;;;3.97;;
26536;SDS011;14204;51.262;5.488;2022-07-05T02:36:15;4.90;;;4.40;;
26536;SDS011;14204;51.262;5.488;2022-07-05T02:38:41;5.22;;;4.82;;
26536;SDS011;14204;51.262;5.488;2022-07-05T02:41:07;5.28;;;4.78;;
26536;SDS011;14204;51.262;5.488;2022-07-05T02:43:34;6.13;;;5.13;;
26536;SDS011;14204;51.262;5.488;2022-07-05T02:46:00;5.20;;;4.80;;
26536;SDS011;14204;51.262;5.488;2022-07-05T02:48:27;5.35;;;4.85;;
26536;SDS011;14204;51.262;5.488;2022-07-05T02:50:53;7.75;;;5.47;;
26536;SDS011;14204;51.262;5.488;2022-07-05T02:53:18;6.43;;;5.65;;
26536;SDS011;14204;51.262;5.488;2022-07-05T02:55:44;9.88;;;6.45;;
26536;SDS011;14204;51.262;5.488;2022-07-05T02:58:10;5.95;;;5.18;;
26536;SDS011;14204;51.262;5.488;2022-07-05T03:00:35;8.10;;;6.10;;
26536;SDS011;14204;51.262;5.488;2022-07-05T03:03:01;7.13;;;5.60;;
26536;SDS011;14204;51.262;5.488;2022-07-05T03:05:27;5.53;;;4.93;;
26536;SDS011;14204;51.262;5.488;2022-07-05T03:07:53;5.93;;;4.57;;
26536;SDS011;14204;51.262;5.488;2022-07-05T03:10:18;5.43;;;4.57;;
26536;SDS011;14204;51.262;5.488;2022-07-05T03:12:44;5.30;;;4.80;;
26536;SDS011;14204;51.262;5.488;2022-07-05T03:15:10;6.00;;;5.43;;
26536;SDS011;14204;51.262;5.488;2022-07-05T03:17:36;6.85;;;5.55;;
26536;SDS011;14204;51.262;5.488;2022-07-05T03:20:02;5.90;;;5.38;;
26536;SDS011;14204;51.262;5.488;2022-07-05T03:22:28;5.50;;;4.93;;
26536;SDS011;14204;51.262;5.488;2022-07-05T03:24:53;5.90;;;5.40;;
26536;SDS011;14204;51.262;5.488;2022-07-05T03:27:19;6.20;;;5.43;;
26536;SDS011;14204;51.262;5.488;2022-07-05T03:29:44;7.70;;;5.70;;
26536;SDS011;14204;51.262;5.488;2022-07-05T03:32:10;5.47;;;4.97;;
26536;SDS011;14204;51.262;5.488;2022-07-05T03:34:36;7.40;;;5.45;;
26536;SDS011;14204;51.262;5.488;2022-07-05T03:37:03;6.35;;;5.07;;
26536;SDS011;14204;51.262;5.488;2022-07-05T03:39:29;8.20;;;5.03;;
26536;SDS011;14204;51.262;5.488;2022-07-05T03:41:54;6.13;;;5.32;;
26536;SDS011;14204;51.262;5.488;2022-07-05T03:44:20;6.88;;;5.70;;
26536;SDS011;14204;51.262;5.488;2022-07-05T03:46:46;5.57;;;5.07;;
26536;SDS011;14204;51.262;5.488;2022-07-05T03:49:11;6.15;;;4.80;;
26536;SDS011;14204;51.262;5.488;2022-07-05T03:51:37;5.32;;;4.93;;
26536;SDS011;14204;51.262;5.488;2022-07-05T03:54:03;5.78;;;5.15;;
26536;SDS011;14204;51.262;5.488;2022-07-05T03:56:28;6.00;;;5.50;;
26536;SDS011;14204;51.262;5.488;2022-07-05T03:58:54;8.02;;;4.82;;
26536;SDS011;14204;51.262;5.488;2022-07-05T04:01:20;5.78;;;4.70;;
26536;SDS011;14204;51.262;5.488;2022-07-05T04:03:45;5.07;;;4.50;;
26536;SDS011;14204;51.262;5.488;2022-07-05T04:06:11;5.05;;;4.53;;
26536;SDS011;14204;51.262;5.488;2022-07-05T04:08:38;4.85;;;4.40;;
26536;SDS011;14204;51.262;5.488;2022-07-05T04:11:03;4.93;;;4.53;;
26536;SDS011;14204;51.262;5.488;2022-07-05T04:13:30;6.05;;;5.07;;
26536;SDS011;14204;51.262;5.488;2022-07-05T04:15:55;6.57;;;5.00;;
26536;SDS011;14204;51.262;5.488;2022-07-05T04:18:22;6.82;;;5.13;;
26536;SDS011;14204;51.262;5.488;2022-07-05T04:20:47;5.47;;;4.97;;
26536;SDS011;14204;51.262;5.488;2022-07-05T04:23:13;8.25;;;4.57;;
26536;SDS011;14204;51.262;5.488;2022-07-05T04:25:39;5.05;;;4.55;;
26536;SDS011;14204;51.262;5.488;2022-07-05T04:28:05;4.72;;;4.32;;
26536;SDS011;14204;51.262;5.488;2022-07-05T04:30:31;4.93;;;4.40;;
26536;SDS011;14204;51.262;5.488;2022-07-05T04:32:57;6.32;;;4.15;;
26536;SDS011;14204;51.262;5.488;2022-07-05T04:35:22;11.68;;;5.70;;
26536;SDS011;14204;51.262;5.488;2022-07-05T04:37:49;6.65;;;5.95;;
26536;SDS011;14204;51.262;5.488;2022-07-05T04:40:14;8.18;;;6.22;;
26536;SDS011;14204;51.262;5.488;2022-07-05T04:42:41;9.63;;;5.85;;
26536;SDS011;14204;51.262;5.488;2022-07-05T04:45:07;7.85;;;5.40;;
26536;SDS011;14204;51.262;5.488;2022-07-05T04:47:33;13.80;;;4.60;;
26536;SDS011;14204;51.262;5.488;2022-07-05T04:50:02;10.77;;;5.38;;
26536;SDS011;14204;51.262;5.488;2022-07-05T04:52:29;9.10;;;6.00;;
26536;SDS011;14204;51.262;5.488;2022-07-05T04:54:55;8.20;;;5.80;;
26536;SDS011;14204;51.262;5.488;2022-07-05T04:57:21;5.53;;;5.00;;
26536;SDS011;14204;51.262;5.488;2022-07-05T04:59:46;9.68;;;5.75;;
26536;SDS011;14204;51.262;5.488;2022-07-05T05:02:12;8.07;;;6.38;;
26536;SDS011;14204;51.262;5.488;2022-07-05T05:04:38;6.32;;;5.72;;
26536;SDS011;14204;51.262;5.488;2022-07-05T05:07:03;6.85;;;5.20;;
26536;SDS011;14204;51.262;5.488;2022-07-05T05:09:29;7.80;;;5.47;;
26536;SDS011;14204;51.262;5.488;2022-07-05T05:11:55;8.52;;;5.95;;
26536;SDS011;14204;51.262;5.488;2022-07-05T05:14:20;8.90;;;6.13;;
26536;SDS011;14204;51.262;5.488;2022-07-05T05:16:46;7.70;;;6.90;;
26536;SDS011;14204;51.262;5.488;2022-07-05T05:19:12;6.95;;;4.97;;
26536;SDS011;14204;51.262;5.488;2022-07-05T05:21:37;6.20;;;4.88;;
26536;SDS011;14204;51.262;5.488;2022-07-05T05:24:03;7.10;;;5.18;;
26536;SDS011;14204;51.262;5.488;2022-07-05T05:26:29;7.28;;;5.70;;
26536;SDS011;14204;51.262;5.488;2022-07-05T05:28:55;8.52;;;6.13;;
26536;SDS011;14204;51.262;5.488;2022-07-05T05:31:21;9.55;;;5.88;;
26536;SDS011;14204;51.262;5.488;2022-07-05T05:33:46;10.52;;;5.78;;
26536;SDS011;14204;51.262;5.488;2022-07-05T05:36:12;7.88;;;5.68;;
26536;SDS011;14204;51.262;5.488;2022-07-05T05:38:38;6.00;;;5.40;;
26536;SDS011;14204;51.262;5.488;2022-07-05T05:41:04;6.53;;;5.43;;
26536;SDS011;14204;51.262;5.488;2022-07-05T05:43:29;7.70;;;6.28;;
26536;SDS011;14204;51.262;5.488;2022-07-05T05:45:55;7.82;;;6.28;;
26536;SDS011;14204;51.262;5.488;2022-07-05T05:48:21;7.13;;;5.28;;
26536;SDS011;14204;51.262;5.488;2022-07-05T05:50:46;8.35;;;5.68;;
26536;SDS011;14204;51.262;5.488;2022-07-05T05:53:12;7.35;;;5.90;;
26536;SDS011;14204;51.262;5.488;2022-07-05T05:55:38;6.75;;;5.30;;
26536;SDS011;14204;51.262;5.488;2022-07-05T05:58:21;6.53;;;5.90;;
26536;SDS011;14204;51.262;5.488;2022-07-05T06:00:51;10.05;;;7.07;;
26536;SDS011;14204;51.262;5.488;2022-07-05T06:03:26;7.00;;;6.00;;
26536;SDS011;14204;51.262;5.488;2022-07-05T06:05:52;7.85;;;5.80;;
26536;SDS011;14204;51.262;5.488;2022-07-05T06:08:18;10.57;;;5.82;;
26536;SDS011;14204;51.262;5.488;2022-07-05T06:10:44;11.25;;;6.30;;
26536;SDS011;14204;51.262;5.488;2022-07-05T06:13:11;10.40;;;6.85;;
26536;SDS011;14204;51.262;5.488;2022-07-05T06:15:39;12.23;;;7.25;;
26536;SDS011;14204;51.262;5.488;2022-07-05T06:18:06;14.20;;;9.82;;
26536;SDS011;14204;51.262;5.488;2022-07-05T06:20:33;16.20;;;10.25;;
26536;SDS011;14204;51.262;5.488;2022-07-05T06:23:00;16.67;;;10.13;;
26536;SDS011;14204;51.262;5.488;2022-07-05T06:25:27;18.13;;;10.40;;
26536;SDS011;14204;51.262;5.488;2022-07-05T06:27:54;19.92;;;11.25;;
26536;SDS011;14204;51.262;5.488;2022-07-05T06:30:25;18.90;;;10.77;;
26536;SDS011;14204;51.262;5.488;2022-07-05T06:32:52;24.98;;;12.48;;
26536;SDS011;14204;51.262;5.488;2022-07-05T06:35:19;20.70;;;12.77;;
26536;SDS011;14204;51.262;5.488;2022-07-05T06:37:46;26.55;;;13.43;;
26536;SDS011;14204;51.262;5.488;2022-07-05T06:40:16;21.83;;;12.82;;
26536;SDS011;14204;51.262;5.488;2022-07-05T06:42:45;25.50;;;14.00;;
26536;SDS011;14204;51.262;5.488;2022-07-05T06:45:11;28.15;;;14.50;;
26536;SDS011;14204;51.262;5.488;2022-07-05T06:47:37;23.60;;;13.18;;
26536;SDS011;14204;51.262;5.488;2022-07-05T06:50:03;22.02;;;12.88;;
26536;SDS011;14204;51.262;5.488;2022-07-05T06:52:30;27.30;;;12.90;;
26536;SDS011;14204;51.262;5.488;2022-07-05T06:54:57;25.52;;;12.20;;
26536;SDS011;14204;51.262;5.488;2022-07-05T06:57:23;19.63;;;10.65;;
26536;SDS011;14204;51.262;5.488;2022-07-05T06:59:49;20.90;;;10.30;;
26536;SDS011;14204;51.262;5.488;2022-07-05T07:02:15;17.00;;;10.32;;
26536;SDS011;14204;51.262;5.488;2022-07-05T07:04:41;22.90;;;12.32;;
26536;SDS011;14204;51.262;5.488;2022-07-05T07:07:07;21.08;;;12.98;;
26536;SDS011;14204;51.262;5.488;2022-07-05T07:09:51;20.58;;;12.35;;
26536;SDS011;14204;51.262;5.488;2022-07-05T07:12:17;18.65;;;11.82;;
26536;SDS011;14204;51.262;5.488;2022-07-05T07:14:42;17.15;;;10.73;;
26536;SDS011;14204;51.262;5.488;2022-07-05T07:17:08;15.52;;;9.23;;
26536;SDS011;14204;51.262;5.488;2022-07-05T07:19:33;13.88;;;8.15;;
26536;SDS011;14204;51.262;5.488;2022-07-05T07:21:59;17.25;;;8.38;;
26536;SDS011;14204;51.262;5.488;2022-07-05T07:24:25;11.38;;;6.65;;
26536;SDS011;14204;51.262;5.488;2022-07-05T07:26:50;15.13;;;6.97;;
26536;SDS011;14204;51.262;5.488;2022-07-05T07:29:30;12.25;;;7.15;;
26536;SDS011;14204;51.262;5.488;2022-07-05T07:31:56;11.52;;;6.90;;
26536;SDS011;14204;51.262;5.488;2022-07-05T07:34:22;12.77;;;8.23;;
26536;SDS011;14204;51.262;5.488;2022-07-05T07:36:49;21.48;;;9.07;;
26536;SDS011;14204;51.262;5.488;2022-07-05T07:39:15;25.90;;;9.68;;
26536;SDS011;14204;51.262;5.488;2022-07-05T07:41:40;23.45;;;9.13;;
26536;SDS011;14204;51.262;5.488;2022-07-05T07:44:06;25.45;;;8.57;;
26536;SDS011;14204;51.262;5.488;2022-07-05T07:46:32;23.40;;;8.95;;
26536;SDS011;14204;51.262;5.488;2022-07-05T07:48:58;25.55;;;9.38;;
26536;SDS011;14204;51.262;5.488;2022-07-05T07:51:24;22.67;;;9.27;;
26536;SDS011;14204;51.262;5.488;2022-07-05T07:53:49;21.67;;;8.98;;
26536;SDS011;14204;51.262;5.488;2022-07-05T07:56:15;20.73;;;8.38;;
26536;SDS011;14204;51.262;5.488;2022-07-05T07:58:41;17.35;;;8.05;;
26536;SDS011;14204;51.262;5.488;2022-07-05T08:01:07;13.52;;;8.18;;
26536;SDS011;14204;51.262;5.488;2022-07-05T08:03:36;17.40;;;8.60;;
26536;SDS011;14204;51.262;5.488;2022-07-05T08:06:03;15.25;;;6.90;;
26536;SDS011;14204;51.262;5.488;2022-07-05T08:08:28;13.23;;;7.43;;
26536;SDS011;14204;51.262;5.488;2022-07-05T08:10:54;15.18;;;7.22;;
26536;SDS011;14204;51.262;5.488;2022-07-05T08:13:20;11.45;;;6.65;;
26536;SDS011;14204;51.262;5.488;2022-07-05T08:15:45;14.93;;;6.72;;
26536;SDS011;14204;51.262;5.488;2022-07-05T08:18:11;15.25;;;6.45;;
26536;SDS011;14204;51.262;5.488;2022-07-05T08:20:55;12.70;;;6.18;;
26536;SDS011;14204;51.262;5.488;2022-07-05T08:23:39;10.52;;;5.40;;
26536;SDS011;14204;51.262;5.488;2022-07-05T08:26:05;8.85;;;5.13;;
26536;SDS011;14204;51.262;5.488;2022-07-05T08:28:30;8.05;;;6.28;;
26536;SDS011;14204;51.262;5.488;2022-07-05T08:30:56;9.93;;;5.75;;
26536;SDS011;14204;51.262;5.488;2022-07-05T08:33:21;10.05;;;5.40;;
26536;SDS011;14204;51.262;5.488;2022-07-05T08:35:49;13.85;;;4.63;;
26536;SDS011;14204;51.262;5.488;2022-07-05T08:38:15;11.38;;;5.28;;
26536;SDS011;14204;51.262;5.488;2022-07-05T08:40:42;12.02;;;5.90;;
26536;SDS011;14204;51.262;5.488;2022-07-05T08:43:11;9.85;;;5.00;;
26536;SDS011;14204;51.262;5.488;2022-07-05T08:45:40;12.95;;;4.55;;
26536;SDS011;14204;51.262;5.488;2022-07-05T08:48:08;8.13;;;4.80;;
26536;SDS011;14204;51.262;5.488;2022-07-05T08:50:35;10.38;;;4.80;;
26536;SDS011;14204;51.262;5.488;2022-07-05T08:53:04;10.32;;;3.58;;
26536;SDS011;14204;51.262;5.488;2022-07-05T08:55:31;9.07;;;3.45;;
26536;SDS011;14204;51.262;5.488;2022-07-05T08:57:58;9.00;;;3.38;;
26536;SDS011;14204;51.262;5.488;2022-07-05T09:00:24;7.75;;;3.88;;
26536;SDS011;14204;51.262;5.488;2022-07-05T09:02:50;7.25;;;4.03;;
26536;SDS011;14204;51.262;5.488;2022-07-05T09:05:17;9.57;;;4.15;;
26536;SDS011;14204;51.262;5.488;2022-07-05T09:07:48;7.78;;;3.40;;
26536;SDS011;14204;51.262;5.488;2022-07-05T09:10:25;5.28;;;2.85;;
26536;SDS011;14204;51.262;5.488;2022-07-05T09:12:52;7.97;;;2.33;;
26536;SDS011;14204;51.262;5.488;2022-07-05T09:15:19;8.82;;;2.38;;
26536;SDS011;14204;51.262;5.488;2022-07-05T09:17:45;7.63;;;3.15;;
26536;SDS011;14204;51.262;5.488;2022-07-05T09:20:12;6.32;;;2.97;;
26536;SDS011;14204;51.262;5.488;2022-07-05T09:25:22;7.88;;;2.70;;
26536;SDS011;14204;51.262;5.488;2022-07-05T09:27:56;4.57;;;2.42;;
26536;SDS011;14204;51.262;5.488;2022-07-05T09:30:40;6.30;;;2.30;;
26536;SDS011;14204;51.262;5.488;2022-07-05T09:33:13;7.13;;;2.30;;
26536;SDS011;14204;51.262;5.488;2022-07-05T09:35:41;5.40;;;2.25;;
26536;SDS011;14204;51.262;5.488;2022-07-05T09:38:18;7.20;;;2.45;;
26536;SDS011;14204;51.262;5.488;2022-07-05T09:40:49;4.93;;;2.35;;
26536;SDS011;14204;51.262;5.488;2022-07-05T09:43:20;9.70;;;3.40;;
26536;SDS011;14204;51.262;5.488;2022-07-05T09:45:51;5.47;;;2.33;;
26536;SDS011;14204;51.262;5.488;2022-07-05T09:48:28;5.13;;;2.50;;
26536;SDS011;14204;51.262;5.488;2022-07-05T09:51:11;8.25;;;2.33;;
26536;SDS011;14204;51.262;5.488;2022-07-05T09:53:50;6.72;;;2.85;;
26536;SDS011;14204;51.262;5.488;2022-07-05T09:56:18;5.70;;;2.65;;
26536;SDS011;14204;51.262;5.488;2022-07-05T09:58:44;8.48;;;2.90;;
26536;SDS011;14204;51.262;5.488;2022-07-05T10:01:29;5.70;;;2.38;;
26536;SDS011;14204;51.262;5.488;2022-07-05T10:03:57;8.18;;;2.38;;
26536;SDS011;14204;51.262;5.488;2022-07-05T10:06:26;8.38;;;2.05;;
26536;SDS011;14204;51.262;5.488;2022-07-05T10:08:53;6.15;;;2.10;;
26536;SDS011;14204;51.262;5.488;2022-07-05T10:11:19;3.15;;;1.33;;
26536;SDS011;14204;51.262;5.488;2022-07-05T10:13:49;5.35;;;2.10;;
26536;SDS011;14204;51.262;5.488;2022-07-05T10:16:16;6.75;;;2.20;;
26536;SDS011;14204;51.262;5.488;2022-07-05T10:18:45;6.72;;;2.65;;
26536;SDS011;14204;51.262;5.488;2022-07-05T10:21:13;8.35;;;2.42;;
26536;SDS011;14204;51.262;5.488;2022-07-05T10:23:44;5.75;;;1.98;;
26536;SDS011;14204;51.262;5.488;2022-07-05T10:26:13;5.25;;;2.03;;
26536;SDS011;14204;51.262;5.488;2022-07-05T10:28:40;5.32;;;2.15;;
26536;SDS011;14204;51.262;5.488;2022-07-05T10:31:10;5.07;;;2.17;;
26536;SDS011;14204;51.262;5.488;2022-07-05T10:33:40;8.43;;;1.67;;
26536;SDS011;14204;51.262;5.488;2022-07-05T10:36:06;6.00;;;1.63;;
26536;SDS011;14204;51.262;5.488;2022-07-05T10:38:40;6.50;;;1.92;;
26536;SDS011;14204;51.262;5.488;2022-07-05T10:41:11;2.30;;;1.80;;
26536;SDS011;14204;51.262;5.488;2022-07-05T10:43:42;6.82;;;1.73;;
26536;SDS011;14204;51.262;5.488;2022-07-05T10:46:07;4.10;;;1.88;;
26536;SDS011;14204;51.262;5.488;2022-07-05T10:48:33;4.00;;;1.88;;
26536;SDS011;14204;51.262;5.488;2022-07-05T11:03:46;3.80;;;1.80;;
26536;SDS011;14204;51.262;5.488;2022-07-05T11:06:19;3.38;;;1.65;;
26536;SDS011;14204;51.262;5.488;2022-07-05T11:11:33;5.32;;;1.95;;
26536;SDS011;14204;51.262;5.488;2022-07-05T11:14:05;7.40;;;2.92;;
26536;SDS011;14204;51.262;5.488;2022-07-05T11:22:41;3.22;;;1.40;;
26536;SDS011;14204;51.262;5.488;2022-07-05T11:25:29;4.22;;;1.55;;
26536;SDS011;14204;51.262;5.488;2022-07-05T11:28:07;1.80;;;1.40;;
26536;SDS011;14204;51.262;5.488;2022-07-05T11:30:57;4.25;;;1.20;;
26536;SDS011;14204;51.262;5.488;2022-07-05T11:33:27;3.42;;;1.75;;
26536;SDS011;14204;51.262;5.488;2022-07-05T11:41:33;4.63;;;1.70;;
26536;SDS011;14204;51.262;5.488;2022-07-05T11:44:00;2.08;;;1.60;;
26536;SDS011;14204;51.262;5.488;2022-07-05T11:46:27;4.95;;;1.63;;
26536;SDS011;14204;51.262;5.488;2022-07-05T11:48:53;3.13;;;1.80;;
26536;SDS011;14204;51.262;5.488;2022-07-05T11:51:19;6.00;;;2.13;;
26536;SDS011;14204;51.262;5.488;2022-07-05T11:53:44;5.20;;;2.20;;
26536;SDS011;14204;51.262;5.488;2022-07-05T11:56:11;3.33;;;1.50;;
26536;SDS011;14204;51.262;5.488;2022-07-05T11:58:36;5.25;;;2.15;;
26536;SDS011;14204;51.262;5.488;2022-07-05T12:01:02;4.03;;;1.73;;
26536;SDS011;14204;51.262;5.488;2022-07-05T12:03:28;3.28;;;2.30;;
26536;SDS011;14204;51.262;5.488;2022-07-05T12:05:54;3.67;;;1.77;;
26536;SDS011;14204;51.262;5.488;2022-07-05T12:08:21;6.00;;;2.30;;
26536;SDS011;14204;51.262;5.488;2022-07-05T12:10:47;4.75;;;2.50;;
26536;SDS011;14204;51.262;5.488;2022-07-05T12:13:42;3.45;;;2.10;;
26536;SDS011;14204;51.262;5.488;2022-07-05T12:16:12;6.35;;;2.55;;
26536;SDS011;14204;51.262;5.488;2022-07-05T12:21:16;3.70;;;2.03;;
26536;SDS011;14204;51.262;5.488;2022-07-05T12:23:42;5.82;;;2.17;;
26536;SDS011;14204;51.262;5.488;2022-07-05T12:26:10;3.92;;;2.20;;
26536;SDS011;14204;51.262;5.488;2022-07-05T12:28:37;4.28;;;2.45;;
26536;SDS011;14204;51.262;5.488;2022-07-05T12:31:19;4.93;;;2.00;;
26536;SDS011;14204;51.262;5.488;2022-07-05T12:33:45;5.20;;;2.47;;
26536;SDS011;14204;51.262;5.488;2022-07-05T12:36:14;5.97;;;2.20;;
26536;SDS011;14204;51.262;5.488;2022-07-05T12:38:45;5.25;;;2.65;;
26536;SDS011;14204;51.262;5.488;2022-07-05T12:41:11;6.72;;;2.40;;
26536;SDS011;14204;51.262;5.488;2022-07-05T12:43:52;2.90;;;2.25;;
26536;SDS011;14204;51.262;5.488;2022-07-05T12:46:19;4.22;;;2.17;;
26536;SDS011;14204;51.262;5.488;2022-07-05T12:48:51;3.40;;;2.20;;
26536;SDS011;14204;51.262;5.488;2022-07-05T12:51:30;4.05;;;2.40;;
26536;SDS011;14204;51.262;5.488;2022-07-05T12:54:00;4.90;;;2.13;;
26536;SDS011;14204;51.262;5.488;2022-07-05T12:56:49;6.80;;;3.28;;
26536;SDS011;14204;51.262;5.488;2022-07-05T12:59:34;5.15;;;3.58;;
26536;SDS011;14204;51.262;5.488;2022-07-05T13:02:01;5.90;;;3.50;;
26536;SDS011;14204;51.262;5.488;2022-07-05T13:04:27;4.32;;;3.10;;
26536;SDS011;14204;51.262;5.488;2022-07-05T13:06:54;7.30;;;4.32;;
26536;SDS011;14204;51.262;5.488;2022-07-05T13:12:06;5.75;;;3.60;;
26536;SDS011;14204;51.262;5.488;2022-07-05T13:14:52;7.53;;;3.33;;
26536;SDS011;14204;51.262;5.488;2022-07-05T13:17:19;9.43;;;4.70;;
26536;SDS011;14204;51.262;5.488;2022-07-05T13:19:48;6.72;;;3.80;;
26536;SDS011;14204;51.262;5.488;2022-07-05T13:22:14;6.85;;;4.65;;
26536;SDS011;14204;51.262;5.488;2022-07-05T13:24:40;7.10;;;3.53;;
26536;SDS011;14204;51.262;5.488;2022-07-05T13:27:07;5.78;;;3.13;;
26536;SDS011;14204;51.262;5.488;2022-07-05T13:29:33;7.60;;;3.45;;
26536;SDS011;14204;51.262;5.488;2022-07-05T13:31:59;3.22;;;2.70;;
26536;SDS011;14204;51.262;5.488;2022-07-05T13:34:25;7.28;;;2.40;;
26536;SDS011;14204;51.262;5.488;2022-07-05T13:36:54;3.88;;;2.30;;
26536;SDS011;14204;51.262;5.488;2022-07-05T13:39:21;4.18;;;2.10;;
26536;SDS011;14204;51.262;5.488;2022-07-05T13:41:48;3.35;;;2.45;;
26536;SDS011;14204;51.262;5.488;2022-07-05T13:44:16;2.30;;;1.90;;
26536;SDS011;14204;51.262;5.488;2022-07-05T13:46:42;3.47;;;1.83;;
26536;SDS011;14204;51.262;5.488;2022-07-05T13:49:08;5.60;;;2.13;;
26536;SDS011;14204;51.262;5.488;2022-07-05T13:51:34;3.17;;;2.22;;
26536;SDS011;14204;51.262;5.488;2022-07-05T13:54:00;4.80;;;1.80;;
26536;SDS011;14204;51.262;5.488;2022-07-05T13:56:25;5.70;;;1.60;;
26536;SDS011;14204;51.262;5.488;2022-07-05T13:58:52;2.50;;;1.67;;
26536;SDS011;14204;51.262;5.488;2022-07-05T14:01:21;4.43;;;1.30;;
26536;SDS011;14204;51.262;5.488;2022-07-05T14:03:58;3.28;;;1.63;;
26536;SDS011;14204;51.262;5.488;2022-07-05T14:06:27;4.05;;;1.92;;
26536;SDS011;14204;51.262;5.488;2022-07-05T14:08:54;1.77;;;1.52;;
26536;SDS011;14204;51.262;5.488;2022-07-05T14:11:20;2.63;;;1.55;;
26536;SDS011;14204;51.262;5.488;2022-07-05T14:13:46;2.28;;;1.38;;
26536;SDS011;14204;51.262;5.488;2022-07-05T14:16:11;3.30;;;1.50;;
26536;SDS011;14204;51.262;5.488;2022-07-05T14:18:37;3.28;;;1.40;;
26536;SDS011;14204;51.262;5.488;2022-07-05T14:21:03;4.40;;;2.20;;
26536;SDS011;14204;51.262;5.488;2022-07-05T14:23:29;1.42;;;1.23;;
26536;SDS011;14204;51.262;5.488;2022-07-05T14:25:55;2.28;;;1.83;;
26536;SDS011;14204;51.262;5.488;2022-07-05T14:28:22;4.07;;;1.42;;
26536;SDS011;14204;51.262;5.488;2022-07-05T14:30:48;3.50;;;1.58;;
26536;SDS011;14204;51.262;5.488;2022-07-05T14:33:14;3.13;;;1.30;;
26536;SDS011;14204;51.262;5.488;2022-07-05T14:35:40;2.65;;;1.50;;
26536;SDS011;14204;51.262;5.488;2022-07-05T14:38:06;5.60;;;1.20;;
26536;SDS011;14204;51.262;5.488;2022-07-05T14:40:33;3.97;;;1.20;;
26536;SDS011;14204;51.262;5.488;2022-07-05T14:42:59;3.22;;;1.67;;
26536;SDS011;14204;51.262;5.488;2022-07-05T14:45:26;2.22;;;1.20;;
26536;SDS011;14204;51.262;5.488;2022-07-05T14:47:52;3.70;;;1.35;;
26536;SDS011;14204;51.262;5.488;2022-07-05T14:50:19;4.45;;;1.10;;
26536;SDS011;14204;51.262;5.488;2022-07-05T14:52:45;2.40;;;1.13;;
26536;SDS011;14204;51.262;5.488;2022-07-05T14:55:12;4.90;;;1.05;;
26536;SDS011;14204;51.262;5.488;2022-07-05T14:57:38;4.70;;;1.10;;
26536;SDS011;14204;51.262;5.488;2022-07-05T15:00:06;2.35;;;1.10;;
26536;SDS011;14204;51.262;5.488;2022-07-05T15:02:36;2.00;;;1.10;;
26536;SDS011;14204;51.262;5.488;2022-07-05T15:05:02;1.95;;;1.27;;
26536;SDS011;14204;51.262;5.488;2022-07-05T15:07:28;3.55;;;1.10;;
26536;SDS011;14204;51.262;5.488;2022-07-05T15:09:54;1.88;;;1.10;;
26536;SDS011;14204;51.262;5.488;2022-07-05T15:12:20;4.22;;;1.00;;
26536;SDS011;14204;51.262;5.488;2022-07-05T15:14:46;3.70;;;0.88;;
26536;SDS011;14204;51.262;5.488;2022-07-05T15:17:11;2.83;;;1.13;;
26536;SDS011;14204;51.262;5.488;2022-07-05T15:19:37;3.30;;;0.82;;
26536;SDS011;14204;51.262;5.488;2022-07-05T15:22:05;1.30;;;0.82;;